sensor_id;sensor_type;location;lat;lon;timestamp;pressure;altitude;pressure_sealevel;temperature
19644;BMP180;9970;-36.854;174.870;2023-05-07T00:00:24;102095.00;;;20.30
19644;BMP180;9970;-36.854;174.870;2023-05-07T00:02:57;102092.00;;;20.20
19644;BMP180;9970;-36.854;174.870;2023-05-07T00:05:31;102098.00;;;20.20
19644;BMP180;9970;-36.854;174.870;2023-05-07T00:08:04;102094.00;;;20.20
19644;BMP180;9970;-36.854;174.870;2023-05-07T00:10:37;102085.00;;;20.30
19644;BMP180;9970;-36.854;174.870;2023-05-07T00:13:10;102084.00;;;20.20
19644;BMP180;9970;-36.854;174.870;2023-05-07T00:15:43;102072.00;;;20.20
19644;BMP180;9970;-36.854;174.870;2023-05-07T00:18:16;102088.00;;;20.20
19644;BMP180;9970;-36.854;174.870;2023-05-07T00:20:50;102056.00;;;20.20
19644;BMP180;9970;-36.854;174.870;2023-05-07T00:23:23;102065.00;;;20.20
19644;BMP180;9970;-36.854;174.870;2023-05-07T00:25:57;102055.00;;;20.20
19644;BMP180;9970;-36.854;174.870;2023-05-07T00:28:30;102051.00;;;20.20
19644;BMP180;9970;-36.854;174.870;2023-05-07T00:31:03;102044.00;;;20.20
19644;BMP180;9970;-36.854;174.870;2023-05-07T00:33:39;102045.00;;;20.20
19644;BMP180;9970;-36.854;174.870;2023-05-07T00:36:12;102047.00;;;20.20
19644;BMP180;9970;-36.854;174.870;2023-05-07T00:38:45;102050.00;;;20.30
19644;BMP180;9970;-36.854;174.870;2023-05-07T00:41:18;102048.00;;;20.30
19644;BMP180;9970;-36.854;174.870;2023-05-07T00:43:51;102048.00;;;20.30
19644;BMP180;9970;-36.854;174.870;2023-05-07T00:46:24;102059.00;;;20.40
19644;BMP180;9970;-36.854;174.870;2023-05-07T00:48:58;102061.00;;;20.40
19644;BMP180;9970;-36.854;174.870;2023-05-07T00:51:32;102046.00;;;20.40
19644;BMP180;9970;-36.854;174.870;2023-05-07T00:54:05;102052.00;;;20.40
19644;BMP180;9970;-36.854;174.870;2023-05-07T00:56:40;102052.00;;;20.40
19644;BMP180;9970;-36.854;174.870;2023-05-07T00:59:13;102056.00;;;20.40
19644;BMP180;9970;-36.854;174.870;2023-05-07T01:01:46;102063.00;;;20.30
19644;BMP180;9970;-36.854;174.870;2023-05-07T01:04:19;102054.00;;;20.20
19644;BMP180;9970;-36.854;174.870;2023-05-07T01:06:54;102057.00;;;20.20
19644;BMP180;9970;-36.854;174.870;2023-05-07T01:09:29;102050.00;;;20.10
19644;BMP180;9970;-36.854;174.870;2023-05-07T01:12:02;102046.00;;;20.00
19644;BMP180;9970;-36.854;174.870;2023-05-07T01:14:36;102042.00;;;20.00
19644;BMP180;9970;-36.854;174.870;2023-05-07T01:20:20;102043.00;;;20.00
19644;BMP180;9970;-36.854;174.870;2023-05-07T01:22:53;102046.00;;;20.00
19644;BMP180;9970;-36.854;174.870;2023-05-07T01:25:26;102044.00;;;20.00
19644;BMP180;9970;-36.854;174.870;2023-05-07T01:27:59;102041.00;;;20.00
19644;BMP180;9970;-36.854;174.870;2023-05-07T01:30:33;102025.00;;;20.00
19644;BMP180;9970;-36.854;174.870;2023-05-07T01:33:11;102025.00;;;20.00
19644;BMP180;9970;-36.854;174.870;2023-05-07T01:35:46;102031.00;;;20.00
19644;BMP180;9970;-36.854;174.870;2023-05-07T01:38:20;102028.00;;;20.00
19644;BMP180;9970;-36.854;174.870;2023-05-07T01:40:54;102024.00;;;20.00
19644;BMP180;9970;-36.854;174.870;2023-05-07T01:43:27;102013.00;;;20.00
19644;BMP180;9970;-36.854;174.870;2023-05-07T01:46:01;102014.00;;;20.00
19644;BMP180;9970;-36.854;174.870;2023-05-07T01:48:35;102021.00;;;20.00
19644;BMP180;9970;-36.854;174.870;2023-05-07T01:51:09;102020.00;;;20.00
19644;BMP180;9970;-36.854;174.870;2023-05-07T01:53:42;102021.00;;;20.00
19644;BMP180;9970;-36.854;174.870;2023-05-07T01:56:16;102017.00;;;20.00
19644;BMP180;9970;-36.854;174.870;2023-05-07T01:58:50;102020.00;;;20.00
19644;BMP180;9970;-36.854;174.870;2023-05-07T02:01:23;102015.00;;;20.00
19644;BMP180;9970;-36.854;174.870;2023-05-07T02:03:56;102017.00;;;20.00
19644;BMP180;9970;-36.854;174.870;2023-05-07T02:06:29;102015.00;;;20.00
19644;BMP180;9970;-36.854;174.870;2023-05-07T02:09:02;102011.00;;;20.00
19644;BMP180;9970;-36.854;174.870;2023-05-07T02:11:35;102002.00;;;20.00
19644;BMP180;9970;-36.854;174.870;2023-05-07T02:14:09;102008.00;;;20.00
19644;BMP180;9970;-36.854;174.870;2023-05-07T02:16:42;102021.00;;;20.00
19644;BMP180;9970;-36.854;174.870;2023-05-07T02:19:15;102011.00;;;20.00
19644;BMP180;9970;-36.854;174.870;2023-05-07T02:21:49;102014.00;;;20.00
19644;BMP180;9970;-36.854;174.870;2023-05-07T02:24:21;102027.00;;;20.00
19644;BMP180;9970;-36.854;174.870;2023-05-07T02:26:55;101999.00;;;20.00
19644;BMP180;9970;-36.854;174.870;2023-05-07T02:29:27;101999.00;;;20.00
19644;BMP180;9970;-36.854;174.870;2023-05-07T02:32:01;102006.00;;;20.00
19644;BMP180;9970;-36.854;174.870;2023-05-07T02:34:33;102003.00;;;20.00
19644;BMP180;9970;-36.854;174.870;2023-05-07T02:37:06;102004.00;;;20.00
19644;BMP180;9970;-36.854;174.870;2023-05-07T02:39:39;102001.00;;;19.90
19644;BMP180;9970;-36.854;174.870;2023-05-07T02:42:12;102007.00;;;20.00
19644;BMP180;9970;-36.854;174.870;2023-05-07T02:44:45;102003.00;;;19.90
19644;BMP180;9970;-36.854;174.870;2023-05-07T02:47:18;102014.00;;;19.90
19644;BMP180;9970;-36.854;174.870;2023-05-07T02:49:51;102011.00;;;19.90
19644;BMP180;9970;-36.854;174.870;2023-05-07T02:52:24;102007.00;;;19.90
19644;BMP180;9970;-36.854;174.870;2023-05-07T02:54:57;102015.00;;;19.90
19644;BMP180;9970;-36.854;174.870;2023-05-07T02:57:30;102005.00;;;20.00
19644;BMP180;9970;-36.854;174.870;2023-05-07T03:00:17;102013.00;;;20.00
19644;BMP180;9970;-36.854;174.870;2023-05-07T03:02:54;102011.00;;;20.00
19644;BMP180;9970;-36.854;174.870;2023-05-07T03:05:27;102007.00;;;20.00
19644;BMP180;9970;-36.854;174.870;2023-05-07T03:08:00;102004.00;;;20.00
19644;BMP180;9970;-36.854;174.870;2023-05-07T03:10:33;102012.00;;;20.00
19644;BMP180;9970;-36.854;174.870;2023-05-07T03:13:07;102013.00;;;20.00
19644;BMP180;9970;-36.854;174.870;2023-05-07T03:15:39;102010.00;;;20.00
19644;BMP180;9970;-36.854;174.870;2023-05-07T03:18:13;102009.00;;;20.00
19644;BMP180;9970;-36.854;174.870;2023-05-07T03:20:46;102011.00;;;20.00
19644;BMP180;9970;-36.854;174.870;2023-05-07T03:23:19;102016.00;;;20.00
19644;BMP180;9970;-36.854;174.870;2023-05-07T03:25:53;102019.00;;;20.00
19644;BMP180;9970;-36.854;174.870;2023-05-07T03:28:26;102011.00;;;20.00
19644;BMP180;9970;-36.854;174.870;2023-05-07T03:30:59;102004.00;;;20.00
19644;BMP180;9970;-36.854;174.870;2023-05-07T03:33:35;102011.00;;;20.00
19644;BMP180;9970;-36.854;174.870;2023-05-07T03:36:09;102014.00;;;20.00
19644;BMP180;9970;-36.854;174.870;2023-05-07T03:38:42;102008.00;;;20.00
19644;BMP180;9970;-36.854;174.870;2023-05-07T03:41:15;102014.00;;;20.00
19644;BMP180;9970;-36.854;174.870;2023-05-07T03:43:47;102010.00;;;20.00
19644;BMP180;9970;-36.854;174.870;2023-05-07T03:46:20;102013.00;;;20.00
19644;BMP180;9970;-36.854;174.870;2023-05-07T03:48:53;102012.00;;;20.00
19644;BMP180;9970;-36.854;174.870;2023-05-07T03:51:26;102010.00;;;20.00
19644;BMP180;9970;-36.854;174.870;2023-05-07T03:53:59;102023.00;;;20.00
19644;BMP180;9970;-36.854;174.870;2023-05-07T03:56:32;102018.00;;;20.00
19644;BMP180;9970;-36.854;174.870;2023-05-07T03:59:05;102016.00;;;20.00
19644;BMP180;9970;-36.854;174.870;2023-05-07T04:01:38;102022.00;;;20.00
19644;BMP180;9970;-36.854;174.870;2023-05-07T04:04:11;102020.00;;;20.00
19644;BMP180;9970;-36.854;174.870;2023-05-07T04:06:44;102024.00;;;20.00
19644;BMP180;9970;-36.854;174.870;2023-05-07T04:09:18;102016.00;;;20.00
19644;BMP180;9970;-36.854;174.870;2023-05-07T04:11:51;102011.00;;;20.00
19644;BMP180;9970;-36.854;174.870;2023-05-07T04:14:24;102014.00;;;20.00
19644;BMP180;9970;-36.854;174.870;2023-05-07T04:16:57;102011.00;;;20.00
19644;BMP180;9970;-36.854;174.870;2023-05-07T04:19:30;102018.00;;;19.90
19644;BMP180;9970;-36.854;174.870;2023-05-07T04:22:03;102013.00;;;19.90
19644;BMP180;9970;-36.854;174.870;2023-05-07T04:24:36;102014.00;;;19.90
19644;BMP180;9970;-36.854;174.870;2023-05-07T04:27:09;102012.00;;;19.90
19644;BMP180;9970;-36.854;174.870;2023-05-07T04:29:42;102011.00;;;19.90
19644;BMP180;9970;-36.854;174.870;2023-05-07T04:32:16;102008.00;;;19.90
19644;BMP180;9970;-36.854;174.870;2023-05-07T04:34:49;102010.00;;;19.80
19644;BMP180;9970;-36.854;174.870;2023-05-07T04:37:22;102015.00;;;19.80
19644;BMP180;9970;-36.854;174.870;2023-05-07T04:39:55;102018.00;;;19.80
19644;BMP180;9970;-36.854;174.870;2023-05-07T04:42:27;102015.00;;;19.80
19644;BMP180;9970;-36.854;174.870;2023-05-07T04:45:00;102007.00;;;19.80
19644;BMP180;9970;-36.854;174.870;2023-05-07T04:47:33;102003.00;;;19.80
19644;BMP180;9970;-36.854;174.870;2023-05-07T04:50:07;102013.00;;;19.80
19644;BMP180;9970;-36.854;174.870;2023-05-07T04:52:41;102011.00;;;19.70
19644;BMP180;9970;-36.854;174.870;2023-05-07T04:55:14;102016.00;;;19.80
19644;BMP180;9970;-36.854;174.870;2023-05-07T04:57:49;101994.00;;;19.70
19644;BMP180;9970;-36.854;174.870;2023-05-07T05:00:22;102009.00;;;19.70
19644;BMP180;9970;-36.854;174.870;2023-05-07T05:02:54;102004.00;;;19.70
19644;BMP180;9970;-36.854;174.870;2023-05-07T05:05:27;102007.00;;;19.70
19644;BMP180;9970;-36.854;174.870;2023-05-07T05:08:00;102008.00;;;19.70
19644;BMP180;9970;-36.854;174.870;2023-05-07T05:10:34;102007.00;;;19.60
19644;BMP180;9970;-36.854;174.870;2023-05-07T05:13:06;102011.00;;;19.60
19644;BMP180;9970;-36.854;174.870;2023-05-07T05:15:40;102011.00;;;19.60
19644;BMP180;9970;-36.854;174.870;2023-05-07T05:18:13;102016.00;;;19.60
19644;BMP180;9970;-36.854;174.870;2023-05-07T05:20:46;102010.00;;;19.60
19644;BMP180;9970;-36.854;174.870;2023-05-07T05:23:19;102007.00;;;19.60
19644;BMP180;9970;-36.854;174.870;2023-05-07T05:25:59;102015.00;;;19.60
19644;BMP180;9970;-36.854;174.870;2023-05-07T05:28:32;101994.00;;;19.60
19644;BMP180;9970;-36.854;174.870;2023-05-07T05:31:05;101991.00;;;19.60
19644;BMP180;9970;-36.854;174.870;2023-05-07T05:33:38;101988.00;;;19.50
19644;BMP180;9970;-36.854;174.870;2023-05-07T05:36:11;101986.00;;;19.50
19644;BMP180;9970;-36.854;174.870;2023-05-07T05:38:44;101994.00;;;19.50
19644;BMP180;9970;-36.854;174.870;2023-05-07T05:41:19;102002.00;;;19.50
19644;BMP180;9970;-36.854;174.870;2023-05-07T05:43:52;102010.00;;;19.50
19644;BMP180;9970;-36.854;174.870;2023-05-07T05:46:25;102009.00;;;19.50
19644;BMP180;9970;-36.854;174.870;2023-05-07T05:48:59;102010.00;;;19.50
19644;BMP180;9970;-36.854;174.870;2023-05-07T05:51:32;102020.00;;;19.50
19644;BMP180;9970;-36.854;174.870;2023-05-07T05:54:04;102020.00;;;19.50
19644;BMP180;9970;-36.854;174.870;2023-05-07T05:56:37;102025.00;;;19.50
19644;BMP180;9970;-36.854;174.870;2023-05-07T05:59:11;102035.00;;;19.50
19644;BMP180;9970;-36.854;174.870;2023-05-07T06:01:44;102040.00;;;19.50
19644;BMP180;9970;-36.854;174.870;2023-05-07T06:04:17;102040.00;;;19.50
19644;BMP180;9970;-36.854;174.870;2023-05-07T06:06:50;102034.00;;;19.50
19644;BMP180;9970;-36.854;174.870;2023-05-07T06:09:23;102041.00;;;19.50
19644;BMP180;9970;-36.854;174.870;2023-05-07T06:11:58;102039.00;;;19.50
19644;BMP180;9970;-36.854;174.870;2023-05-07T06:14:31;102037.00;;;19.50
19644;BMP180;9970;-36.854;174.870;2023-05-07T06:17:04;102041.00;;;19.50
19644;BMP180;9970;-36.854;174.870;2023-05-07T06:19:37;102037.00;;;19.50
19644;BMP180;9970;-36.854;174.870;2023-05-07T06:22:14;102036.00;;;19.50
19644;BMP180;9970;-36.854;174.870;2023-05-07T06:24:47;102036.00;;;19.50
19644;BMP180;9970;-36.854;174.870;2023-05-07T06:27:20;102032.00;;;19.50
19644;BMP180;9970;-36.854;174.870;2023-05-07T06:29:53;102046.00;;;19.50
19644;BMP180;9970;-36.854;174.870;2023-05-07T06:32:26;102034.00;;;19.50
19644;BMP180;9970;-36.854;174.870;2023-05-07T06:34:59;102035.00;;;19.50
19644;BMP180;9970;-36.854;174.870;2023-05-07T06:37:32;102047.00;;;19.50
19644;BMP180;9970;-36.854;174.870;2023-05-07T06:40:06;102046.00;;;19.40
19644;BMP180;9970;-36.854;174.870;2023-05-07T06:42:40;102045.00;;;19.40
19644;BMP180;9970;-36.854;174.870;2023-05-07T06:45:13;102042.00;;;19.40
19644;BMP180;9970;-36.854;174.870;2023-05-07T06:47:45;102044.00;;;19.40
19644;BMP180;9970;-36.854;174.870;2023-05-07T06:50:18;102045.00;;;19.40
19644;BMP180;9970;-36.854;174.870;2023-05-07T06:52:52;102051.00;;;19.40
19644;BMP180;9970;-36.854;174.870;2023-05-07T06:55:24;102064.00;;;19.40
19644;BMP180;9970;-36.854;174.870;2023-05-07T06:57:58;102055.00;;;19.40
19644;BMP180;9970;-36.854;174.870;2023-05-07T07:00:33;102061.00;;;19.40
19644;BMP180;9970;-36.854;174.870;2023-05-07T07:03:05;102062.00;;;19.40
19644;BMP180;9970;-36.854;174.870;2023-05-07T07:05:40;102057.00;;;19.40
19644;BMP180;9970;-36.854;174.870;2023-05-07T07:08:13;102057.00;;;19.40
19644;BMP180;9970;-36.854;174.870;2023-05-07T07:10:46;102066.00;;;19.40
19644;BMP180;9970;-36.854;174.870;2023-05-07T07:13:19;102073.00;;;19.40
19644;BMP180;9970;-36.854;174.870;2023-05-07T07:15:53;102065.00;;;19.40
19644;BMP180;9970;-36.854;174.870;2023-05-07T07:18:26;102064.00;;;19.30
19644;BMP180;9970;-36.854;174.870;2023-05-07T07:21:00;102056.00;;;19.30
19644;BMP180;9970;-36.854;174.870;2023-05-07T07:23:33;102067.00;;;19.30
19644;BMP180;9970;-36.854;174.870;2023-05-07T07:26:06;102077.00;;;19.30
19644;BMP180;9970;-36.854;174.870;2023-05-07T07:28:45;102078.00;;;19.30
19644;BMP180;9970;-36.854;174.870;2023-05-07T07:31:19;102080.00;;;19.30
19644;BMP180;9970;-36.854;174.870;2023-05-07T07:33:52;102083.00;;;19.30
19644;BMP180;9970;-36.854;174.870;2023-05-07T07:36:25;102091.00;;;19.30
19644;BMP180;9970;-36.854;174.870;2023-05-07T07:38:59;102086.00;;;19.30
19644;BMP180;9970;-36.854;174.870;2023-05-07T07:41:31;102081.00;;;19.30
19644;BMP180;9970;-36.854;174.870;2023-05-07T07:44:05;102088.00;;;19.30
19644;BMP180;9970;-36.854;174.870;2023-05-07T07:46:38;102090.00;;;19.30
19644;BMP180;9970;-36.854;174.870;2023-05-07T07:49:11;102091.00;;;19.30
19644;BMP180;9970;-36.854;174.870;2023-05-07T07:51:44;102084.00;;;19.30
19644;BMP180;9970;-36.854;174.870;2023-05-07T07:54:17;102094.00;;;19.30
19644;BMP180;9970;-36.854;174.870;2023-05-07T07:56:50;102091.00;;;19.30
19644;BMP180;9970;-36.854;174.870;2023-05-07T07:59:23;102091.00;;;19.30
19644;BMP180;9970;-36.854;174.870;2023-05-07T08:01:56;102089.00;;;19.30
19644;BMP180;9970;-36.854;174.870;2023-05-07T08:04:29;102095.00;;;19.30
19644;BMP180;9970;-36.854;174.870;2023-05-07T08:07:03;102084.00;;;19.30
19644;BMP180;9970;-36.854;174.870;2023-05-07T08:09:39;102078.00;;;19.30
19644;BMP180;9970;-36.854;174.870;2023-05-07T08:12:13;102071.00;;;19.30
19644;BMP180;9970;-36.854;174.870;2023-05-07T08:14:50;102078.00;;;19.30
19644;BMP180;9970;-36.854;174.870;2023-05-07T08:17:26;102068.00;;;19.30
19644;BMP180;9970;-36.854;174.870;2023-05-07T08:20:06;102074.00;;;19.30
19644;BMP180;9970;-36.854;174.870;2023-05-07T08:22:39;102068.00;;;19.30
19644;BMP180;9970;-36.854;174.870;2023-05-07T08:25:12;102059.00;;;19.30
19644;BMP180;9970;-36.854;174.870;2023-05-07T08:27:49;102066.00;;;19.30
19644;BMP180;9970;-36.854;174.870;2023-05-07T08:30:22;102061.00;;;19.30
19644;BMP180;9970;-36.854;174.870;2023-05-07T08:32:55;102058.00;;;19.30
19644;BMP180;9970;-36.854;174.870;2023-05-07T08:35:28;102066.00;;;19.30
19644;BMP180;9970;-36.854;174.870;2023-05-07T08:38:01;102070.00;;;19.30
19644;BMP180;9970;-36.854;174.870;2023-05-07T08:40:40;102055.00;;;19.30
19644;BMP180;9970;-36.854;174.870;2023-05-07T08:43:08;102063.00;;;19.30
19644;BMP180;9970;-36.854;174.870;2023-05-07T08:45:42;102056.00;;;19.30
19644;BMP180;9970;-36.854;174.870;2023-05-07T08:48:18;102062.00;;;19.30
19644;BMP180;9970;-36.854;174.870;2023-05-07T08:50:52;102056.00;;;19.30
19644;BMP180;9970;-36.854;174.870;2023-05-07T08:53:25;102063.00;;;19.30
19644;BMP180;9970;-36.854;174.870;2023-05-07T08:55:57;102061.00;;;19.30
19644;BMP180;9970;-36.854;174.870;2023-05-07T08:58:30;102057.00;;;19.30
19644;BMP180;9970;-36.854;174.870;2023-05-07T09:01:07;102060.00;;;19.30
19644;BMP180;9970;-36.854;174.870;2023-05-07T09:03:39;102055.00;;;19.30
19644;BMP180;9970;-36.854;174.870;2023-05-07T09:06:12;102057.00;;;19.30
19644;BMP180;9970;-36.854;174.870;2023-05-07T09:08:52;102054.00;;;19.30
19644;BMP180;9970;-36.854;174.870;2023-05-07T09:11:29;102071.00;;;19.30
19644;BMP180;9970;-36.854;174.870;2023-05-07T09:14:03;102070.00;;;19.20
19644;BMP180;9970;-36.854;174.870;2023-05-07T09:16:39;102070.00;;;19.20
19644;BMP180;9970;-36.854;174.870;2023-05-07T09:19:15;102060.00;;;19.20
19644;BMP180;9970;-36.854;174.870;2023-05-07T09:22:02;102062.00;;;19.20
19644;BMP180;9970;-36.854;174.870;2023-05-07T09:24:38;102063.00;;;19.10
19644;BMP180;9970;-36.854;174.870;2023-05-07T09:27:14;102064.00;;;19.10
19644;BMP180;9970;-36.854;174.870;2023-05-07T09:29:48;102068.00;;;19.10
19644;BMP180;9970;-36.854;174.870;2023-05-07T09:32:24;102075.00;;;19.10
19644;BMP180;9970;-36.854;174.870;2023-05-07T09:35:04;102063.00;;;19.10
19644;BMP180;9970;-36.854;174.870;2023-05-07T09:37:39;102069.00;;;19.10
19644;BMP180;9970;-36.854;174.870;2023-05-07T09:40:26;102067.00;;;19.10
19644;BMP180;9970;-36.854;174.870;2023-05-07T09:43:09;102060.00;;;19.10
19644;BMP180;9970;-36.854;174.870;2023-05-07T09:45:43;102062.00;;;19.10
19644;BMP180;9970;-36.854;174.870;2023-05-07T09:48:17;102057.00;;;19.10
19644;BMP180;9970;-36.854;174.870;2023-05-07T09:50:51;102055.00;;;19.10
19644;BMP180;9970;-36.854;174.870;2023-05-07T09:53:25;102069.00;;;19.10
19644;BMP180;9970;-36.854;174.870;2023-05-07T09:56:01;102063.00;;;19.10
19644;BMP180;9970;-36.854;174.870;2023-05-07T09:58:36;102063.00;;;19.10
19644;BMP180;9970;-36.854;174.870;2023-05-07T10:01:10;102070.00;;;19.10
19644;BMP180;9970;-36.854;174.870;2023-05-07T10:03:44;102068.00;;;19.00
19644;BMP180;9970;-36.854;174.870;2023-05-07T10:06:18;102062.00;;;19.00
19644;BMP180;9970;-36.854;174.870;2023-05-07T10:08:52;102062.00;;;19.00
19644;BMP180;9970;-36.854;174.870;2023-05-07T10:11:25;102058.00;;;19.00
19644;BMP180;9970;-36.854;174.870;2023-05-07T10:13:58;102053.00;;;19.00
19644;BMP180;9970;-36.854;174.870;2023-05-07T10:16:34;102066.00;;;18.90
19644;BMP180;9970;-36.854;174.870;2023-05-07T10:19:10;102068.00;;;18.90
19644;BMP180;9970;-36.854;174.870;2023-05-07T10:21:48;102068.00;;;18.90
19644;BMP180;9970;-36.854;174.870;2023-05-07T10:24:21;102070.00;;;18.90
19644;BMP180;9970;-36.854;174.870;2023-05-07T10:26:55;102057.00;;;18.80
19644;BMP180;9970;-36.854;174.870;2023-05-07T10:29:33;102055.00;;;18.80
19644;BMP180;9970;-36.854;174.870;2023-05-07T10:32:30;102051.00;;;18.80
19644;BMP180;9970;-36.854;174.870;2023-05-07T10:35:02;102049.00;;;18.90
19644;BMP180;9970;-36.854;174.870;2023-05-07T10:37:35;102051.00;;;18.90
19644;BMP180;9970;-36.854;174.870;2023-05-07T10:40:10;102046.00;;;18.90
19644;BMP180;9970;-36.854;174.870;2023-05-07T10:42:59;102039.00;;;18.90
19644;BMP180;9970;-36.854;174.870;2023-05-07T10:45:32;102041.00;;;18.90
19644;BMP180;9970;-36.854;174.870;2023-05-07T10:48:14;102047.00;;;18.90
19644;BMP180;9970;-36.854;174.870;2023-05-07T10:50:48;102045.00;;;18.90
19644;BMP180;9970;-36.854;174.870;2023-05-07T10:53:22;102041.00;;;18.90
19644;BMP180;9970;-36.854;174.870;2023-05-07T10:58:46;102047.00;;;18.90
19644;BMP180;9970;-36.854;174.870;2023-05-07T11:02:25;102034.00;;;18.90
19644;BMP180;9970;-36.854;174.870;2023-05-07T11:04:19;102031.00;;;18.90
19644;BMP180;9970;-36.854;174.870;2023-05-07T11:09:59;102024.00;;;18.90
19644;BMP180;9970;-36.854;174.870;2023-05-07T11:15:14;102030.00;;;18.90
19644;BMP180;9970;-36.854;174.870;2023-05-07T11:17:58;102037.00;;;18.90
19644;BMP180;9970;-36.854;174.870;2023-05-07T11:20:49;102040.00;;;18.90
19644;BMP180;9970;-36.854;174.870;2023-05-07T11:26:11;102037.00;;;18.90
19644;BMP180;9970;-36.854;174.870;2023-05-07T11:28:45;102031.00;;;18.90
19644;BMP180;9970;-36.854;174.870;2023-05-07T11:31:22;102031.00;;;18.90
19644;BMP180;9970;-36.854;174.870;2023-05-07T11:33:56;102041.00;;;18.90
19644;BMP180;9970;-36.854;174.870;2023-05-07T11:36:30;102033.00;;;18.90
19644;BMP180;9970;-36.854;174.870;2023-05-07T11:39:04;102025.00;;;18.90
19644;BMP180;9970;-36.854;174.870;2023-05-07T11:41:37;102034.00;;;19.00
19644;BMP180;9970;-36.854;174.870;2023-05-07T11:44:10;102033.00;;;19.00
19644;BMP180;9970;-36.854;174.870;2023-05-07T11:46:44;102035.00;;;19.00
19644;BMP180;9970;-36.854;174.870;2023-05-07T11:49:17;102037.00;;;19.00
19644;BMP180;9970;-36.854;174.870;2023-05-07T11:51:50;102039.00;;;19.00
19644;BMP180;9970;-36.854;174.870;2023-05-07T11:54:22;102036.00;;;19.00
19644;BMP180;9970;-36.854;174.870;2023-05-07T11:56:57;102039.00;;;19.00
19644;BMP180;9970;-36.854;174.870;2023-05-07T11:59:30;102027.00;;;19.00
19644;BMP180;9970;-36.854;174.870;2023-05-07T12:02:03;102024.00;;;19.00
19644;BMP180;9970;-36.854;174.870;2023-05-07T12:04:37;102024.00;;;19.00
19644;BMP180;9970;-36.854;174.870;2023-05-07T12:07:13;102024.00;;;19.00
19644;BMP180;9970;-36.854;174.870;2023-05-07T12:09:47;102026.00;;;19.00
19644;BMP180;9970;-36.854;174.870;2023-05-07T12:12:20;102017.00;;;19.00
19644;BMP180;9970;-36.854;174.870;2023-05-07T12:14:53;102027.00;;;19.00
19644;BMP180;9970;-36.854;174.870;2023-05-07T12:17:26;102022.00;;;19.00
19644;BMP180;9970;-36.854;174.870;2023-05-07T12:19:58;102028.00;;;19.00
19644;BMP180;9970;-36.854;174.870;2023-05-07T12:22:32;102024.00;;;19.00
19644;BMP180;9970;-36.854;174.870;2023-05-07T12:25:06;102027.00;;;19.00
19644;BMP180;9970;-36.854;174.870;2023-05-07T12:27:40;102023.00;;;19.00
19644;BMP180;9970;-36.854;174.870;2023-05-07T12:30:13;102017.00;;;19.00
19644;BMP180;9970;-36.854;174.870;2023-05-07T12:32:46;102018.00;;;19.00
19644;BMP180;9970;-36.854;174.870;2023-05-07T12:35:30;102006.00;;;19.10
19644;BMP180;9970;-36.854;174.870;2023-05-07T12:38:03;102005.00;;;19.10
19644;BMP180;9970;-36.854;174.870;2023-05-07T12:43:18;102004.00;;;19.10
19644;BMP180;9970;-36.854;174.870;2023-05-07T12:45:53;102018.00;;;19.10
19644;BMP180;9970;-36.854;174.870;2023-05-07T12:48:26;102007.00;;;19.10
19644;BMP180;9970;-36.854;174.870;2023-05-07T12:51:00;102013.00;;;19.10
19644;BMP180;9970;-36.854;174.870;2023-05-07T12:53:33;102011.00;;;19.10
19644;BMP180;9970;-36.854;174.870;2023-05-07T12:56:07;102020.00;;;19.10
19644;BMP180;9970;-36.854;174.870;2023-05-07T12:58:40;102006.00;;;19.10
19644;BMP180;9970;-36.854;174.870;2023-05-07T13:01:13;102018.00;;;19.10
19644;BMP180;9970;-36.854;174.870;2023-05-07T13:03:49;102017.00;;;19.10
19644;BMP180;9970;-36.854;174.870;2023-05-07T13:06:22;102013.00;;;19.10
19644;BMP180;9970;-36.854;174.870;2023-05-07T13:08:55;102013.00;;;19.10
19644;BMP180;9970;-36.854;174.870;2023-05-07T13:11:28;102004.00;;;19.20
19644;BMP180;9970;-36.854;174.870;2023-05-07T13:14:01;102004.00;;;19.20
19644;BMP180;9970;-36.854;174.870;2023-05-07T13:16:34;101997.00;;;19.20
19644;BMP180;9970;-36.854;174.870;2023-05-07T13:19:08;101993.00;;;19.20
19644;BMP180;9970;-36.854;174.870;2023-05-07T13:21:41;102011.00;;;19.20
19644;BMP180;9970;-36.854;174.870;2023-05-07T13:24:14;102013.00;;;19.20
19644;BMP180;9970;-36.854;174.870;2023-05-07T13:26:50;102006.00;;;19.10
19644;BMP180;9970;-36.854;174.870;2023-05-07T13:29:23;102007.00;;;19.10
19644;BMP180;9970;-36.854;174.870;2023-05-07T13:31:58;102009.00;;;19.20
19644;BMP180;9970;-36.854;174.870;2023-05-07T13:34:31;102010.00;;;19.20
19644;BMP180;9970;-36.854;174.870;2023-05-07T13:37:04;101995.00;;;19.20
19644;BMP180;9970;-36.854;174.870;2023-05-07T13:39:38;101987.00;;;19.20
19644;BMP180;9970;-36.854;174.870;2023-05-07T13:42:11;101990.00;;;19.20
19644;BMP180;9970;-36.854;174.870;2023-05-07T13:44:44;101995.00;;;19.20
19644;BMP180;9970;-36.854;174.870;2023-05-07T13:47:17;101987.00;;;19.20
19644;BMP180;9970;-36.854;174.870;2023-05-07T13:49:51;101987.00;;;19.20
19644;BMP180;9970;-36.854;174.870;2023-05-07T13:52:25;101992.00;;;19.20
19644;BMP180;9970;-36.854;174.870;2023-05-07T13:54:57;101981.00;;;19.20
19644;BMP180;9970;-36.854;174.870;2023-05-07T13:57:30;101985.00;;;19.20
19644;BMP180;9970;-36.854;174.870;2023-05-07T14:00:06;101984.00;;;19.20
19644;BMP180;9970;-36.854;174.870;2023-05-07T14:02:40;101975.00;;;19.20
19644;BMP180;9970;-36.854;174.870;2023-05-07T14:05:13;101966.00;;;19.20
19644;BMP180;9970;-36.854;174.870;2023-05-07T14:07:46;101978.00;;;19.20
19644;BMP180;9970;-36.854;174.870;2023-05-07T14:10:20;101967.00;;;19.20
19644;BMP180;9970;-36.854;174.870;2023-05-07T14:12:54;101962.00;;;19.20
19644;BMP180;9970;-36.854;174.870;2023-05-07T14:15:26;101960.00;;;19.20
19644;BMP180;9970;-36.854;174.870;2023-05-07T14:18:00;101952.00;;;19.20
19644;BMP180;9970;-36.854;174.870;2023-05-07T14:20:33;101959.00;;;19.20
19644;BMP180;9970;-36.854;174.870;2023-05-07T14:23:07;101948.00;;;19.20
19644;BMP180;9970;-36.854;174.870;2023-05-07T14:25:40;101951.00;;;19.20